sensor_id;sensor_type;location;lat;lon;timestamp;pressure;altitude;pressure_sealevel;temperature;humidity
79067;BME280;68470;50.224;14.348;2023-04-01T00:00:55;97786.56;;;8.44;76.30
79067;BME280;68470;50.224;14.348;2023-04-01T00:03:22;97810.31;;;8.54;76.48
79067;BME280;68470;50.224;14.348;2023-04-01T00:05:49;97801.63;;;8.47;76.96
79067;BME280;68470;50.224;14.348;2023-04-01T00:08:16;97785.84;;;8.34;76.75
79067;BME280;68470;50.224;14.348;2023-04-01T00:10:42;97801.72;;;8.37;76.87
79067;BME280;68470;50.224;14.348;2023-04-01T00:13:08;97792.97;;;8.35;76.47
79067;BME280;68470;50.224;14.348;2023-04-01T00:15:35;97786.25;;;8.17;77.46
79067;BME280;68470;50.224;14.348;2023-04-01T00:18:03;97799.81;;;8.32;76.98
79067;BME280;68470;50.224;14.348;2023-04-01T00:20:29;97786.09;;;8.08;77.94
79067;BME280;68470;50.224;14.348;2023-04-01T00:22:55;97782.75;;;8.11;77.63
79067;BME280;68470;50.224;14.348;2023-04-01T00:25:22;97807.81;;;8.29;77.61
79067;BME280;68470;50.224;14.348;2023-04-01T00:27:48;97777.28;;;8.11;77.39
79067;BME280;68470;50.224;14.348;2023-04-01T00:30:15;97774.25;;;8.13;77.52
79067;BME280;68470;50.224;14.348;2023-04-01T00:32:41;97794.78;;;8.15;78.19
79067;BME280;68470;50.224;14.348;2023-04-01T00:35:07;97775.66;;;8.05;77.96
79067;BME280;68470;50.224;14.348;2023-04-01T00:37:37;97779.72;;;8.13;77.73
79067;BME280;68470;50.224;14.348;2023-04-01T00:40:05;97791.59;;;8.03;78.73
79067;BME280;68470;50.224;14.348;2023-04-01T00:42:32;97795.44;;;8.02;78.47
79067;BME280;68470;50.224;14.348;2023-04-01T00:44:58;97787.25;;;7.97;78.77
79067;BME280;68470;50.224;14.348;2023-04-01T00:47:25;97793.91;;;7.86;79.51
79067;BME280;68470;50.224;14.348;2023-04-01T00:49:54;97816.41;;;7.83;80.57
79067;BME280;68470;50.224;14.348;2023-04-01T00:52:22;97810.03;;;7.59;81.36
79067;BME280;68470;50.224;14.348;2023-04-01T00:54:53;97801.94;;;7.38;82.21
79067;BME280;68470;50.224;14.348;2023-04-01T00:57:27;97800.28;;;7.37;82.34
79067;BME280;68470;50.224;14.348;2023-04-01T00:59:57;97806.19;;;7.54;81.50
79067;BME280;68470;50.224;14.348;2023-04-01T01:02:24;97773.47;;;7.39;80.83
79067;BME280;68470;50.224;14.348;2023-04-01T01:04:52;97785.50;;;7.43;81.12
79067;BME280;68470;50.224;14.348;2023-04-01T01:10:18;97775.59;;;7.47;80.77
79067;BME280;68470;50.224;14.348;2023-04-01T01:15:50;97779.81;;;7.69;79.98
79067;BME280;68470;50.224;14.348;2023-04-01T01:23:44;97816.19;;;7.79;80.58
79067;BME280;68470;50.224;14.348;2023-04-01T01:32:09;97824.31;;;7.90;80.21
79067;BME280;68470;50.224;14.348;2023-04-01T01:37:16;97789.94;;;7.73;80.35
79067;BME280;68470;50.224;14.348;2023-04-01T01:39:44;97792.91;;;7.77;80.34
79067;BME280;68470;50.224;14.348;2023-04-01T01:42:14;97816.28;;;7.98;79.66
79067;BME280;68470;50.224;14.348;2023-04-01T01:44:42;97788.44;;;7.86;79.53
79067;BME280;68470;50.224;14.348;2023-04-01T01:47:10;97811.72;;;7.89;80.00
79067;BME280;68470;50.224;14.348;2023-04-01T01:49:37;97787.09;;;7.83;79.74
79067;BME280;68470;50.224;14.348;2023-04-01T01:52:05;97797.75;;;7.90;79.89
79067;BME280;68470;50.224;14.348;2023-04-01T01:54:31;97816.25;;;8.03;79.96
79067;BME280;68470;50.224;14.348;2023-04-01T01:57:17;97791.47;;;7.84;79.82
79067;BME280;68470;50.224;14.348;2023-04-01T01:59:45;97785.00;;;7.75;80.39
79067;BME280;68470;50.224;14.348;2023-04-01T02:02:13;97818.56;;;7.91;81.31
79067;BME280;68470;50.224;14.348;2023-04-01T02:04:42;97817.53;;;7.82;81.66
79067;BME280;68470;50.224;14.348;2023-04-01T02:07:26;97801.97;;;7.72;81.86
79067;BME280;68470;50.224;14.348;2023-04-01T02:09:53;97819.19;;;7.78;82.63
79067;BME280;68470;50.224;14.348;2023-04-01T02:12:21;97823.63;;;7.69;83.28
79067;BME280;68470;50.224;14.348;2023-04-01T02:17:25;97818.50;;;7.62;82.85
79067;BME280;68470;50.224;14.348;2023-04-01T02:19:53;97816.03;;;7.61;83.23
79067;BME280;68470;50.224;14.348;2023-04-01T02:22:24;97810.63;;;7.50;83.01
79067;BME280;68470;50.224;14.348;2023-04-01T02:24:54;97821.50;;;7.61;83.25
79067;BME280;68470;50.224;14.348;2023-04-01T02:27:23;97811.38;;;7.61;82.81
79067;BME280;68470;50.224;14.348;2023-04-01T02:29:50;97803.66;;;7.68;81.38
79067;BME280;68470;50.224;14.348;2023-04-01T02:32:18;97817.31;;;7.73;82.85
79067;BME280;68470;50.224;14.348;2023-04-01T02:34:45;97819.16;;;7.83;81.50
79067;BME280;68470;50.224;14.348;2023-04-01T02:37:12;97806.09;;;7.75;81.03
79067;BME280;68470;50.224;14.348;2023-04-01T02:39:39;97822.66;;;7.89;81.31
79067;BME280;68470;50.224;14.348;2023-04-01T02:42:06;97819.09;;;7.93;80.96
79067;BME280;68470;50.224;14.348;2023-04-01T02:44:32;97811.47;;;7.85;81.59
79067;BME280;68470;50.224;14.348;2023-04-01T02:46:58;97831.75;;;7.84;81.42
79067;BME280;68470;50.224;14.348;2023-04-01T02:49:25;97834.44;;;7.89;80.93
79067;BME280;68470;50.224;14.348;2023-04-01T02:51:52;97811.22;;;7.81;80.66
79067;BME280;68470;50.224;14.348;2023-04-01T02:54:18;97816.41;;;7.83;80.66
79067;BME280;68470;50.224;14.348;2023-04-01T02:56:44;97822.13;;;7.92;80.28
79067;BME280;68470;50.224;14.348;2023-04-01T02:59:11;97803.88;;;7.77;80.23
79067;BME280;68470;50.224;14.348;2023-04-01T03:01:36;97838.69;;;8.05;79.80
79067;BME280;68470;50.224;14.348;2023-04-01T03:04:02;97816.81;;;8.00;79.37
79067;BME280;68470;50.224;14.348;2023-04-01T03:06:29;97842.19;;;8.16;79.51
79067;BME280;68470;50.224;14.348;2023-04-01T03:08:55;97844.75;;;8.02;79.10
79067;BME280;68470;50.224;14.348;2023-04-01T03:11:21;97844.16;;;8.10;79.45
79067;BME280;68470;50.224;14.348;2023-04-01T03:13:51;97839.72;;;8.14;78.44
79067;BME280;68470;50.224;14.348;2023-04-01T03:16:18;97837.03;;;8.09;78.95
79067;BME280;68470;50.224;14.348;2023-04-01T03:18:43;97851.16;;;8.22;79.07
79067;BME280;68470;50.224;14.348;2023-04-01T03:21:21;97834.53;;;8.13;79.01
79067;BME280;68470;50.224;14.348;2023-04-01T03:23:47;97835.19;;;8.00;79.07
79067;BME280;68470;50.224;14.348;2023-04-01T03:26:14;97822.88;;;7.97;78.31
79067;BME280;68470;50.224;14.348;2023-04-01T03:28:39;97824.44;;;8.08;78.88
79067;BME280;68470;50.224;14.348;2023-04-01T03:31:06;97835.88;;;8.15;77.85
79067;BME280;68470;50.224;14.348;2023-04-01T03:33:32;97864.63;;;8.18;78.60
79067;BME280;68470;50.224;14.348;2023-04-01T03:35:58;97856.25;;;8.04;79.33
79067;BME280;68470;50.224;14.348;2023-04-01T03:38:24;97839.38;;;7.87;80.08
79067;BME280;68470;50.224;14.348;2023-04-01T03:40:50;97848.94;;;7.95;79.33
79067;BME280;68470;50.224;14.348;2023-04-01T03:43:16;97854.69;;;7.93;79.53
79067;BME280;68470;50.224;14.348;2023-04-01T03:45:46;97848.13;;;7.94;79.87
79067;BME280;68470;50.224;14.348;2023-04-01T03:48:13;97865.50;;;8.13;79.42
79067;BME280;68470;50.224;14.348;2023-04-01T03:50:40;97867.75;;;8.06;79.57
79067;BME280;68470;50.224;14.348;2023-04-01T03:53:06;97839.09;;;7.94;79.25
79067;BME280;68470;50.224;14.348;2023-04-01T03:55:32;97850.28;;;7.97;79.16
79067;BME280;68470;50.224;14.348;2023-04-01T03:57:57;97868.41;;;7.93;80.03
79067;BME280;68470;50.224;14.348;2023-04-01T04:00:23;97864.03;;;7.87;80.23
79067;BME280;68470;50.224;14.348;2023-04-01T04:02:49;97859.06;;;7.94;78.84
79067;BME280;68470;50.224;14.348;2023-04-01T04:05:16;97886.09;;;8.06;78.93
79067;BME280;68470;50.224;14.348;2023-04-01T04:07:42;97863.50;;;7.90;79.48
79067;BME280;68470;50.224;14.348;2023-04-01T04:10:08;97870.84;;;7.95;79.34
79067;BME280;68470;50.224;14.348;2023-04-01T04:12:34;97856.34;;;7.89;78.57
79067;BME280;68470;50.224;14.348;2023-04-01T04:15:00;97868.22;;;7.79;80.08
79067;BME280;68470;50.224;14.348;2023-04-01T04:17:26;97861.19;;;7.63;80.22
79067;BME280;68470;50.224;14.348;2023-04-01T04:19:52;97879.13;;;7.90;79.25
79067;BME280;68470;50.224;14.348;2023-04-01T04:22:20;97892.00;;;7.84;80.02
79067;BME280;68470;50.224;14.348;2023-04-01T04:24:47;97856.09;;;7.46;80.34
79067;BME280;68470;50.224;14.348;2023-04-01T04:27:13;97873.06;;;7.48;80.90
79067;BME280;68470;50.224;14.348;2023-04-01T04:29:39;97901.91;;;7.80;80.33
79067;BME280;68470;50.224;14.348;2023-04-01T04:32:05;97883.34;;;7.67;79.76
79067;BME280;68470;50.224;14.348;2023-04-01T04:34:31;97887.72;;;7.68;79.95
79067;BME280;68470;50.224;14.348;2023-04-01T04:36:57;97888.75;;;7.82;78.98
79067;BME280;68470;50.224;14.348;2023-04-01T04:39:23;97882.81;;;7.65;79.82
79067;BME280;68470;50.224;14.348;2023-04-01T04:41:49;97902.16;;;7.83;79.33
79067;BME280;68470;50.224;14.348;2023-04-01T04:44:15;97902.41;;;7.87;79.15
79067;BME280;68470;50.224;14.348;2023-04-01T04:46:41;97884.59;;;7.90;78.92
79067;BME280;68470;50.224;14.348;2023-04-01T04:49:09;97893.19;;;7.73;79.78
79067;BME280;68470;50.224;14.348;2023-04-01T04:51:35;97894.88;;;7.64;80.25
79067;BME280;68470;50.224;14.348;2023-04-01T04:54:05;97876.31;;;7.50;79.93
79067;BME280;68470;50.224;14.348;2023-04-01T04:56:31;97898.44;;;7.64;79.65
79067;BME280;68470;50.224;14.348;2023-04-01T04:58:57;97897.81;;;7.72;79.18
79067;BME280;68470;50.224;14.348;2023-04-01T05:01:23;97896.75;;;7.73;79.31
79067;BME280;68470;50.224;14.348;2023-04-01T05:03:49;97882.25;;;7.68;79.26
79067;BME280;68470;50.224;14.348;2023-04-01T05:06:16;97894.84;;;7.69;79.64
79067;BME280;68470;50.224;14.348;2023-04-01T05:08:43;97901.94;;;7.75;78.87
79067;BME280;68470;50.224;14.348;2023-04-01T05:11:12;97921.06;;;7.80;79.08
79067;BME280;68470;50.224;14.348;2023-04-01T05:13:39;97909.88;;;7.71;79.14
79067;BME280;68470;50.224;14.348;2023-04-01T05:16:10;97903.88;;;7.74;78.55
79067;BME280;68470;50.224;14.348;2023-04-01T05:18:36;97912.94;;;7.65;79.33
79067;BME280;68470;50.224;14.348;2023-04-01T05:21:03;97924.88;;;7.84;78.53
79067;BME280;68470;50.224;14.348;2023-04-01T05:23:31;97924.34;;;7.82;78.92
79067;BME280;68470;50.224;14.348;2023-04-01T05:25:57;97891.56;;;7.67;78.97
79067;BME280;68470;50.224;14.348;2023-04-01T05:28:23;97927.69;;;7.74;80.00
79067;BME280;68470;50.224;14.348;2023-04-01T05:30:49;97906.88;;;7.73;79.62
79067;BME280;68470;50.224;14.348;2023-04-01T05:33:16;97894.53;;;7.75;78.83
79067;BME280;68470;50.224;14.348;2023-04-01T05:35:42;97914.47;;;7.86;78.91
79067;BME280;68470;50.224;14.348;2023-04-01T05:38:08;97923.09;;;8.03;78.32
79067;BME280;68470;50.224;14.348;2023-04-01T05:40:34;97903.72;;;7.95;78.22
79067;BME280;68470;50.224;14.348;2023-04-01T05:43:00;97904.34;;;7.81;79.32
79067;BME280;68470;50.224;14.348;2023-04-01T05:45:26;97906.75;;;7.93;78.87
79067;BME280;68470;50.224;14.348;2023-04-01T05:47:53;97900.75;;;7.86;79.06
79067;BME280;68470;50.224;14.348;2023-04-01T05:50:19;97895.19;;;8.01;78.01
79067;BME280;68470;50.224;14.348;2023-04-01T05:52:45;97925.72;;;8.24;77.92
79067;BME280;68470;50.224;14.348;2023-04-01T05:55:11;97893.25;;;8.02;78.13
79067;BME280;68470;50.224;14.348;2023-04-01T05:57:40;97920.84;;;8.15;78.03
79067;BME280;68470;50.224;14.348;2023-04-01T06:00:06;97935.00;;;8.28;77.62
79067;BME280;68470;50.224;14.348;2023-04-01T06:02:34;97915.81;;;8.28;77.62
79067;BME280;68470;50.224;14.348;2023-04-01T06:05:17;97916.03;;;8.36;76.83
79067;BME280;68470;50.224;14.348;2023-04-01T06:07:43;97910.78;;;8.45;76.46
79067;BME280;68470;50.224;14.348;2023-04-01T06:10:18;97929.44;;;8.43;76.65
79067;BME280;68470;50.224;14.348;2023-04-01T06:20:46;97921.13;;;8.82;75.36
79067;BME280;68470;50.224;14.348;2023-04-01T06:26:10;97915.84;;;9.15;73.79
79067;BME280;68470;50.224;14.348;2023-04-01T06:33:56;97930.03;;;9.46;72.53
79067;BME280;68470;50.224;14.348;2023-04-01T06:36:56;97955.84;;;9.87;71.35
79067;BME280;68470;50.224;14.348;2023-04-01T06:42:27;97953.41;;;9.86;71.27
79067;BME280;68470;50.224;14.348;2023-04-01T06:53:43;97938.63;;;10.01;69.90
79067;BME280;68470;50.224;14.348;2023-04-01T06:56:16;97952.91;;;10.03;70.58
79067;BME280;68470;50.224;14.348;2023-04-01T06:58:53;97955.22;;;10.14;70.13
79067;BME280;68470;50.224;14.348;2023-04-01T07:01:26;97954.19;;;10.10;69.96
79067;BME280;68470;50.224;14.348;2023-04-01T07:03:57;97953.72;;;10.03;70.52
79067;BME280;68470;50.224;14.348;2023-04-01T07:09:16;97940.72;;;10.09;72.87
79067;BME280;68470;50.224;14.348;2023-04-01T07:11:45;97937.81;;;9.81;72.68
79067;BME280;68470;50.224;14.348;2023-04-01T07:16:41;97962.47;;;9.44;76.05
79067;BME280;68470;50.224;14.348;2023-04-01T07:19:14;97955.00;;;9.25;76.47
79067;BME280;68470;50.224;14.348;2023-04-01T07:21:49;97946.38;;;9.08;76.31
79067;BME280;68470;50.224;14.348;2023-04-01T07:24:23;97949.59;;;9.15;76.37
79067;BME280;68470;50.224;14.348;2023-04-01T07:26:56;97966.13;;;9.34;76.31
79067;BME280;68470;50.224;14.348;2023-04-01T07:29:22;97960.56;;;9.39;75.76
79067;BME280;68470;50.224;14.348;2023-04-01T07:34:38;97964.91;;;9.45;78.26
79067;BME280;68470;50.224;14.348;2023-04-01T07:37:55;97966.59;;;9.65;76.84
79067;BME280;68470;50.224;14.348;2023-04-01T07:48:32;97955.50;;;9.94;72.31
79067;BME280;68470;50.224;14.348;2023-04-01T07:51:05;97974.88;;;10.03;73.80
79067;BME280;68470;50.224;14.348;2023-04-01T07:53:38;97972.94;;;10.27;71.18
79067;BME280;68470;50.224;14.348;2023-04-01T07:57:05;97956.50;;;10.22;71.89
79067;BME280;68470;50.224;14.348;2023-04-01T08:02:22;97978.13;;;10.29;69.75
79067;BME280;68470;50.224;14.348;2023-04-01T08:07:27;97963.41;;;11.03;66.55
79067;BME280;68470;50.224;14.348;2023-04-01T08:15:55;97958.25;;;11.98;63.24
79067;BME280;68470;50.224;14.348;2023-04-01T08:19:45;97974.94;;;12.29;61.24
79067;BME280;68470;50.224;14.348;2023-04-01T08:21:58;97956.09;;;12.67;60.17
79067;BME280;68470;50.224;14.348;2023-04-01T08:24:41;97976.16;;;12.59;59.21
79067;BME280;68470;50.224;14.348;2023-04-01T08:27:28;97980.19;;;12.75;60.35
79067;BME280;68470;50.224;14.348;2023-04-01T08:30:17;97977.84;;;13.36;58.57
79067;BME280;68470;50.224;14.348;2023-04-01T08:33:12;97965.91;;;13.27;56.64
79067;BME280;68470;50.224;14.348;2023-04-01T08:36:08;97970.53;;;12.86;57.74
79067;BME280;68470;50.224;14.348;2023-04-01T08:38:57;97985.81;;;13.15;58.23
79067;BME280;68470;50.224;14.348;2023-04-01T08:44:30;97952.63;;;13.77;55.73
79067;BME280;68470;50.224;14.348;2023-04-01T09:07:28;97959.00;;;15.80;45.95
79067;BME280;68470;50.224;14.348;2023-04-01T09:19:10;97976.63;;;16.55;46.30
79067;BME280;68470;50.224;14.348;2023-04-01T09:24:41;97975.81;;;16.96;44.27
79067;BME280;68470;50.224;14.348;2023-04-01T09:27:29;97971.78;;;15.55;46.38
79067;BME280;68470;50.224;14.348;2023-04-01T09:36:11;97983.56;;;14.62;51.27
79067;BME280;68470;50.224;14.348;2023-04-01T09:38:58;97963.31;;;14.35;51.28
79067;BME280;68470;50.224;14.348;2023-04-01T09:41:51;97983.28;;;14.06;52.12
79067;BME280;68470;50.224;14.348;2023-04-01T09:52:41;97967.00;;;12.50;56.78
79067;BME280;68470;50.224;14.348;2023-04-01T09:55:54;97989.00;;;12.41;58.25
79067;BME280;68470;50.224;14.348;2023-04-01T09:58:51;98000.47;;;12.34;58.06
79067;BME280;68470;50.224;14.348;2023-04-01T10:07:56;97998.06;;;12.55;58.63
79067;BME280;68470;50.224;14.348;2023-04-01T10:16:34;97967.56;;;14.33;50.08
79067;BME280;68470;50.224;14.348;2023-04-01T10:19:29;97984.47;;;15.73;47.18
79067;BME280;68470;50.224;14.348;2023-04-01T10:25:14;97985.25;;;17.61;41.62
79067;BME280;68470;50.224;14.348;2023-04-01T10:56:02;97981.66;;;19.86;34.69
79067;BME280;68470;50.224;14.348;2023-04-01T11:07:35;97966.91;;;20.36;35.65
79067;BME280;68470;50.224;14.348;2023-04-01T11:27:53;97970.13;;;20.03;34.68
79067;BME280;68470;50.224;14.348;2023-04-01T11:30:53;97969.97;;;17.55;39.87
79067;BME280;68470;50.224;14.348;2023-04-01T11:33:44;97980.31;;;17.22;42.91
79067;BME280;68470;50.224;14.348;2023-04-01T11:36:35;97962.19;;;16.20;44.01
79067;BME280;68470;50.224;14.348;2023-04-01T11:42:13;97972.88;;;19.12;37.65
79067;BME280;68470;50.224;14.348;2023-04-01T11:44:57;97971.31;;;18.71;37.51
79067;BME280;68470;50.224;14.348;2023-04-01T12:02:00;98002.16;;;14.04;50.02
79067;BME280;68470;50.224;14.348;2023-04-01T12:21:22;97970.28;;;16.75;42.28
79067;BME280;68470;50.224;14.348;2023-04-01T12:32:35;98014.84;;;17.21;43.38
79067;BME280;68470;50.224;14.348;2023-04-01T12:46:29;98009.34;;;15.99;45.12
79067;BME280;68470;50.224;14.348;2023-04-01T13:02:32;98006.75;;;18.46;38.63
79067;BME280;68470;50.224;14.348;2023-04-01T13:16:11;97995.50;;;18.30;41.36
79067;BME280;68470;50.224;14.348;2023-04-01T13:22:06;98000.97;;;17.33;42.59
79067;BME280;68470;50.224;14.348;2023-04-01T13:24:51;97999.69;;;17.76;41.59
79067;BME280;68470;50.224;14.348;2023-04-01T13:27:23;97981.63;;;17.82;40.75
79067;BME280;68470;50.224;14.348;2023-04-01T13:30:02;97986.59;;;18.00;39.42
79067;BME280;68470;50.224;14.348;2023-04-01T13:32:36;97997.38;;;17.90;40.19
79067;BME280;68470;50.224;14.348;2023-04-01T13:37:49;98005.00;;;16.40;44.20
79067;BME280;68470;50.224;14.348;2023-04-01T13:40:39;97991.38;;;17.09;42.61
79067;BME280;68470;50.224;14.348;2023-04-01T13:43:20;98000.91;;;15.87;44.62
79067;BME280;68470;50.224;14.348;2023-04-01T13:48:30;98000.09;;;15.31;49.27
79067;BME280;68470;50.224;14.348;2023-04-01T13:56:47;97991.03;;;14.53;49.95
79067;BME280;68470;50.224;14.348;2023-04-01T14:10:42;98007.91;;;13.77;56.85
79067;BME280;68470;50.224;14.348;2023-04-01T14:22:35;98002.34;;;14.17;53.74
79067;BME280;68470;50.224;14.348;2023-04-01T14:25:21;98007.50;;;14.66;52.26
79067;BME280;68470;50.224;14.348;2023-04-01T14:47:43;98027.91;;;13.34;55.91
79067;BME280;68470;50.224;14.348;2023-04-01T14:50:18;98028.97;;;13.24;56.48
79067;BME280;68470;50.224;14.348;2023-04-01T14:53:12;98019.69;;;12.98;56.14
79067;BME280;68470;50.224;14.348;2023-04-01T14:58:13;98016.22;;;15.38;49.27
79067;BME280;68470;50.224;14.348;2023-04-01T15:14:44;98022.38;;;14.13;49.87
79067;BME280;68470;50.224;14.348;2023-04-01T15:27:44;98045.16;;;13.17;57.16
79067;BME280;68470;50.224;14.348;2023-04-01T15:33:07;98045.34;;;12.99;57.02
79067;BME280;68470;50.224;14.348;2023-04-01T15:36:07;98027.50;;;13.05;57.76
79067;BME280;68470;50.224;14.348;2023-04-01T15:38:52;98050.16;;;13.29;54.34
79067;BME280;68470;50.224;14.348;2023-04-01T15:43:53;98049.03;;;13.61;53.73
79067;BME280;68470;50.224;14.348;2023-04-01T15:46:47;98049.78;;;13.93;52.39
79067;BME280;68470;50.224;14.348;2023-04-01T15:49:37;98048.81;;;13.89;52.65
79067;BME280;68470;50.224;14.348;2023-04-01T16:11:17;98080.22;;;11.95;61.54
79067;BME280;68470;50.224;14.348;2023-04-01T16:14:06;98062.03;;;11.80;61.28
79067;BME280;68470;50.224;14.348;2023-04-01T16:25:17;98076.25;;;11.68;58.81
79067;BME280;68470;50.224;14.348;2023-04-01T16:35:57;98081.94;;;11.58;59.68
79067;BME280;68470;50.224;14.348;2023-04-01T16:41:33;98082.25;;;11.57;59.95
79067;BME280;68470;50.224;14.348;2023-04-01T16:44:19;98108.50;;;11.54;60.20
79067;BME280;68470;50.224;14.348;2023-04-01T16:46:47;98075.38;;;11.27;60.75
79067;BME280;68470;50.224;14.348;2023-04-01T16:49:24;98108.94;;;11.29;60.77
79067;BME280;68470;50.224;14.348;2023-04-01T16:54:46;98128.53;;;11.08;61.34
79067;BME280;68470;50.224;14.348;2023-04-01T16:57:25;98127.28;;;10.82;62.45
79067;BME280;68470;50.224;14.348;2023-04-01T17:00:12;98131.16;;;10.81;62.77
79067;BME280;68470;50.224;14.348;2023-04-01T17:02:49;98139.09;;;10.64;63.84
79067;BME280;68470;50.224;14.348;2023-04-01T17:05:20;98119.59;;;10.41;63.76
79067;BME280;68470;50.224;14.348;2023-04-01T17:13:29;98138.94;;;10.07;66.32
79067;BME280;68470;50.224;14.348;2023-04-01T17:18:51;98164.19;;;9.85;68.00
79067;BME280;68470;50.224;14.348;2023-04-01T17:24:43;98170.00;;;9.84;68.47
79067;BME280;68470;50.224;14.348;2023-04-01T17:27:42;98125.91;;;9.41;69.75
79067;BME280;68470;50.224;14.348;2023-04-01T17:35:59;98177.78;;;9.72;69.43
79067;BME280;68470;50.224;14.348;2023-04-01T17:44:17;98197.31;;;9.41;71.86
79067;BME280;68470;50.224;14.348;2023-04-01T17:47:22;98167.50;;;9.24;72.44
79067;BME280;68470;50.224;14.348;2023-04-01T17:58:14;98206.53;;;9.16;74.69
79067;BME280;68470;50.224;14.348;2023-04-01T18:03:52;98207.63;;;9.15;74.80
79067;BME280;68470;50.224;14.348;2023-04-01T18:17:58;98215.84;;;9.20;76.71
79067;BME280;68470;50.224;14.348;2023-04-01T18:20:42;98217.84;;;9.10;76.09
79067;BME280;68470;50.224;14.348;2023-04-01T18:23:22;98209.91;;;9.03;76.98
79067;BME280;68470;50.224;14.348;2023-04-01T18:25:54;98225.25;;;9.09;76.54
79067;BME280;68470;50.224;14.348;2023-04-01T18:28:43;98229.66;;;9.10;76.03
79067;BME280;68470;50.224;14.348;2023-04-01T18:31:18;98218.94;;;9.09;76.18
79067;BME280;68470;50.224;14.348;2023-04-01T18:36:47;98207.28;;;8.83;76.21
79067;BME280;68470;50.224;14.348;2023-04-01T18:39:22;98225.31;;;8.99;76.43
79067;BME280;68470;50.224;14.348;2023-04-01T18:42:05;98246.69;;;9.07;77.07
79067;BME280;68470;50.224;14.348;2023-04-01T18:50:20;98261.22;;;9.02;76.79
79067;BME280;68470;50.224;14.348;2023-04-01T18:52:45;98250.34;;;8.87;77.31
79067;BME280;68470;50.224;14.348;2023-04-01T19:00:22;98252.56;;;8.80;77.27
79067;BME280;68470;50.224;14.348;2023-04-01T19:03:23;98262.75;;;8.74;77.05
79067;BME280;68470;50.224;14.348;2023-04-01T19:05:54;98254.84;;;8.63;78.18
79067;BME280;68470;50.224;14.348;2023-04-01T19:08:31;98235.63;;;8.63;77.09
79067;BME280;68470;50.224;14.348;2023-04-01T19:11:33;98246.38;;;8.49;77.67
79067;BME280;68470;50.224;14.348;2023-04-01T19:14:15;98277.56;;;8.68;78.03
79067;BME280;68470;50.224;14.348;2023-04-01T19:16:49;98278.66;;;8.78;77.59
79067;BME280;68470;50.224;14.348;2023-04-01T19:19:57;98251.91;;;8.44;77.90
79067;BME280;68470;50.224;14.348;2023-04-01T19:23:47;98292.94;;;8.69;78.24
79067;BME280;68470;50.224;14.348;2023-04-01T19:28:22;98257.63;;;8.58;77.95
79067;BME280;68470;50.224;14.348;2023-04-01T19:30:58;98271.06;;;8.49;78.27
79067;BME280;68470;50.224;14.348;2023-04-01T19:33:28;98299.56;;;8.63;78.77
79067;BME280;68470;50.224;14.348;2023-04-01T19:36:11;98257.94;;;8.36;78.95
79067;BME280;68470;50.224;14.348;2023-04-01T19:41:39;98300.94;;;8.61;78.98
79067;BME280;68470;50.224;14.348;2023-04-01T19:46:53;98302.91;;;8.35;80.52
79067;BME280;68470;50.224;14.348;2023-04-01T19:52:32;98287.53;;;8.39;79.99
79067;BME280;68470;50.224;14.348;2023-04-01T20:00:39;98296.03;;;8.22;80.75
79067;BME280;68470;50.224;14.348;2023-04-01T20:09:07;98316.09;;;8.07;82.16
79067;BME280;68470;50.224;14.348;2023-04-01T20:14:51;98324.81;;;8.04;83.07
79067;BME280;68470;50.224;14.348;2023-04-01T20:17:39;98311.41;;;8.03;83.29
79067;BME280;68470;50.224;14.348;2023-04-01T20:27:45;98323.72;;;8.05;83.41
79067;BME280;68470;50.224;14.348;2023-04-01T20:30:23;98333.34;;;8.13;83.64
79067;BME280;68470;50.224;14.348;2023-04-01T20:41:28;98333.91;;;7.90;84.15
79067;BME280;68470;50.224;14.348;2023-04-01T20:44:06;98348.69;;;7.94;84.57
79067;BME280;68470;50.224;14.348;2023-04-01T20:46:51;98353.31;;;7.83;84.90
79067;BME280;68470;50.224;14.348;2023-04-01T20:52:25;98331.41;;;7.68;85.26
79067;BME280;68470;50.224;14.348;2023-04-01T20:54:59;98358.00;;;7.82;84.97
79067;BME280;68470;50.224;14.348;2023-04-01T21:00:24;98358.78;;;7.63;85.77
79067;BME280;68470;50.224;14.348;2023-04-01T21:06:47;98330.78;;;7.30;87.25
79067;BME280;68470;50.224;14.348;2023-04-01T21:09:33;98339.50;;;7.17;87.27
79067;BME280;68470;50.224;14.348;2023-04-01T21:14:54;98360.44;;;7.69;86.61
79067;BME280;68470;50.224;14.348;2023-04-01T21:17:52;98363.72;;;7.61;86.44
79067;BME280;68470;50.224;14.348;2023-04-01T21:20:37;98365.31;;;7.41;87.39
79067;BME280;68470;50.224;14.348;2023-04-01T21:23:38;98366.38;;;7.30;87.74
79067;BME280;68470;50.224;14.348;2023-04-01T21:26:21;98374.91;;;7.49;86.34
79067;BME280;68470;50.224;14.348;2023-04-01T21:28:54;98378.97;;;7.36;87.26
79067;BME280;68470;50.224;14.348;2023-04-01T21:32:10;98374.03;;;7.33;87.66
79067;BME280;68470;50.224;14.348;2023-04-01T21:35:04;98388.56;;;7.39;87.53
79067;BME280;68470;50.224;14.348;2023-04-01T21:37:49;98368.56;;;7.28;86.70
79067;BME280;68470;50.224;14.348;2023-04-01T21:43:28;98398.16;;;7.41;86.75
79067;BME280;68470;50.224;14.348;2023-04-01T21:49:44;98382.63;;;7.72;85.58
79067;BME280;68470;50.224;14.348;2023-04-01T22:05:37;98405.22;;;7.27;87.77
79067;BME280;68470;50.224;14.348;2023-04-01T22:11:12;98414.56;;;7.31;87.37
79067;BME280;68470;50.224;14.348;2023-04-01T22:13:49;98394.28;;;7.32;86.41
79067;BME280;68470;50.224;14.348;2023-04-01T22:19:16;98405.16;;;7.12;88.24
79067;BME280;68470;50.224;14.348;2023-04-01T22:21:56;98392.22;;;6.92;88.82
79067;BME280;68470;50.224;14.348;2023-04-01T22:24:41;98399.06;;;7.00;88.21
79067;BME280;68470;50.224;14.348;2023-04-01T22:32:50;98430.16;;;7.36;88.32
79067;BME280;68470;50.224;14.348;2023-04-01T22:35:44;98427.97;;;7.38;87.37
79067;BME280;68470;50.224;14.348;2023-04-01T22:41:21;98423.38;;;7.53;86.96
79067;BME280;68470;50.224;14.348;2023-04-01T22:43:50;98394.88;;;7.44;86.60
79067;BME280;68470;50.224;14.348;2023-04-01T22:52:09;98405.63;;;7.56;86.71
79067;BME280;68470;50.224;14.348;2023-04-01T22:54:50;98421.13;;;7.35;87.59